Página principal
METAR-TAF:

METAR-TAF

Aeroportos :

Fergana, Uzbequistão

latitude: 40-21-32N, longitude: 071-44-42E, altura: 625 m

Observação actual do tempo

O boletim foi feito há 47 minutos, às 12:00 UTC
Vento 4 kt de oes-noroeste, variando entre oeste e norte
Temperatura 39°C
Humidade 19%
Pressão 1000 hPa
Visibilidade 10 km ou mais

METAR: UTFF 201200Z 30004KT 260V360 9999 NSC 39/11 Q1000 R18/CLRD70

Hora: 17:47 (12:47 UTC)

Previsão

O boletim foi feito há 47 minutos, às 12:00 UTC
Previsão válida de 20 às 13 UTC a 20 às 22 UTC
Vento 10 kt de su-sudeste
Visibilidade 10 km ou mais
Temporariamente
de 20 às 13 UTC a 20 às 18 UTC
Vento 8 kt de noroeste
Poucas nuvensa uma altura de 6000 ft, Cumulonimbus.

TAF: UTFF 201200Z 2013/2022 15010KT 9999 NSC TEMPO 2013/2018 32008KT FEW060CB

Observações e previsões do tempo de mais de 4000 aeroportos (mensagens METAR e TAF).

As estações disponíveis são os pontos amarelos e vermelhos sobre o mapa.

Mova o rato sobre o mapa para ver o nome da estação.

Depois clique no ponto para visualizar as observações e previsões meteorológicas.

Para alterar o mapa : clique nos botões verdes com uma cruz preta para aumentar o zoom; no botão verde com uma pitada de zoom; ou nas setas verdes para mapas adjacentes.


METAR-TAF: